sensor_id;sensor_type;location;lat;lon;timestamp;P1;durP1;ratioP1;P2;durP2;ratioP2
48481;SDS011;34284;48.278;16.378;2023-08-12T00:01:34;318.53;;;176.67;;
48481;SDS011;34284;48.278;16.378;2023-08-12T00:04:00;316.87;;;179.60;;
48481;SDS011;34284;48.278;16.378;2023-08-12T00:06:26;320.37;;;178.50;;
48481;SDS011;34284;48.278;16.378;2023-08-12T00:08:53;325.03;;;186.20;;
48481;SDS011;34284;48.278;16.378;2023-08-12T00:11:19;315.50;;;178.10;;
48481;SDS011;34284;48.278;16.378;2023-08-12T00:13:45;317.87;;;181.60;;
48481;SDS011;34284;48.278;16.378;2023-08-12T00:16:11;324.93;;;181.63;;
48481;SDS011;34284;48.278;16.378;2023-08-12T00:18:37;313.27;;;182.27;;
48481;SDS011;34284;48.278;16.378;2023-08-12T00:21:07;316.43;;;186.87;;
48481;SDS011;34284;48.278;16.378;2023-08-12T00:23:37;316.23;;;180.40;;
48481;SDS011;34284;48.278;16.378;2023-08-12T00:26:03;312.87;;;178.63;;
48481;SDS011;34284;48.278;16.378;2023-08-12T00:28:29;309.03;;;174.37;;
48481;SDS011;34284;48.278;16.378;2023-08-12T00:30:55;318.13;;;175.63;;
48481;SDS011;34284;48.278;16.378;2023-08-12T00:33:21;321.43;;;187.20;;
48481;SDS011;34284;48.278;16.378;2023-08-12T00:35:47;322.93;;;188.20;;
48481;SDS011;34284;48.278;16.378;2023-08-12T00:38:13;319.00;;;184.60;;
48481;SDS011;34284;48.278;16.378;2023-08-12T00:40:39;322.27;;;182.83;;
48481;SDS011;34284;48.278;16.378;2023-08-12T00:43:05;316.70;;;178.03;;
48481;SDS011;34284;48.278;16.378;2023-08-12T00:45:31;313.13;;;179.87;;
48481;SDS011;34284;48.278;16.378;2023-08-12T00:47:57;320.90;;;184.40;;
48481;SDS011;34284;48.278;16.378;2023-08-12T00:50:23;315.37;;;175.60;;
48481;SDS011;34284;48.278;16.378;2023-08-12T00:52:49;332.23;;;186.00;;
48481;SDS011;34284;48.278;16.378;2023-08-12T00:55:16;320.93;;;187.23;;
48481;SDS011;34284;48.278;16.378;2023-08-12T00:57:42;322.27;;;184.27;;
48481;SDS011;34284;48.278;16.378;2023-08-12T01:00:09;317.83;;;171.40;;
48481;SDS011;34284;48.278;16.378;2023-08-12T01:02:35;319.37;;;175.00;;
48481;SDS011;34284;48.278;16.378;2023-08-12T01:05:01;322.90;;;176.70;;
48481;SDS011;34284;48.278;16.378;2023-08-12T01:07:27;313.30;;;173.30;;
48481;SDS011;34284;48.278;16.378;2023-08-12T01:09:53;320.90;;;176.13;;
48481;SDS011;34284;48.278;16.378;2023-08-12T01:13:19;319.03;;;176.07;;
48481;SDS011;34284;48.278;16.378;2023-08-12T01:15:15;315.97;;;177.53;;
48481;SDS011;34284;48.278;16.378;2023-08-12T01:17:42;312.73;;;170.80;;
48481;SDS011;34284;48.278;16.378;2023-08-12T01:20:09;310.07;;;164.23;;
48481;SDS011;34284;48.278;16.378;2023-08-12T01:22:40;315.27;;;168.40;;
48481;SDS011;34284;48.278;16.378;2023-08-12T01:25:06;313.20;;;169.97;;
48481;SDS011;34284;48.278;16.378;2023-08-12T01:27:34;303.10;;;165.87;;
48481;SDS011;34284;48.278;16.378;2023-08-12T01:30:00;305.60;;;170.17;;
48481;SDS011;34284;48.278;16.378;2023-08-12T01:32:38;313.83;;;168.53;;
48481;SDS011;34284;48.278;16.378;2023-08-12T01:37:35;307.73;;;172.70;;
48481;SDS011;34284;48.278;16.378;2023-08-12T01:40:02;308.67;;;169.53;;
48481;SDS011;34284;48.278;16.378;2023-08-12T01:42:29;314.97;;;173.90;;
48481;SDS011;34284;48.278;16.378;2023-08-12T01:44:56;306.23;;;168.63;;
48481;SDS011;34284;48.278;16.378;2023-08-12T01:47:22;312.03;;;172.73;;
48481;SDS011;34284;48.278;16.378;2023-08-12T01:49:48;310.27;;;167.50;;
48481;SDS011;34284;48.278;16.378;2023-08-12T01:52:14;304.20;;;164.37;;
48481;SDS011;34284;48.278;16.378;2023-08-12T01:54:40;315.00;;;171.97;;
48481;SDS011;34284;48.278;16.378;2023-08-12T01:57:06;315.73;;;168.87;;
48481;SDS011;34284;48.278;16.378;2023-08-12T01:59:37;305.60;;;164.63;;
48481;SDS011;34284;48.278;16.378;2023-08-12T02:02:03;299.33;;;161.93;;
48481;SDS011;34284;48.278;16.378;2023-08-12T02:04:29;308.87;;;164.80;;
48481;SDS011;34284;48.278;16.378;2023-08-12T02:06:55;311.03;;;167.50;;
48481;SDS011;34284;48.278;16.378;2023-08-12T02:09:22;307.20;;;167.50;;
48481;SDS011;34284;48.278;16.378;2023-08-12T02:11:48;307.37;;;168.13;;
48481;SDS011;34284;48.278;16.378;2023-08-12T02:14:14;305.80;;;169.20;;
48481;SDS011;34284;48.278;16.378;2023-08-12T02:16:40;299.90;;;164.37;;
48481;SDS011;34284;48.278;16.378;2023-08-12T02:19:06;306.73;;;163.10;;
48481;SDS011;34284;48.278;16.378;2023-08-12T02:21:32;297.53;;;161.70;;
48481;SDS011;34284;48.278;16.378;2023-08-12T02:23:58;307.30;;;170.27;;
48481;SDS011;34284;48.278;16.378;2023-08-12T02:26:24;309.00;;;163.20;;
48481;SDS011;34284;48.278;16.378;2023-08-12T02:28:50;309.17;;;159.23;;
48481;SDS011;34284;48.278;16.378;2023-08-12T02:31:16;305.70;;;168.23;;
48481;SDS011;34284;48.278;16.378;2023-08-12T02:33:43;301.17;;;164.73;;
48481;SDS011;34284;48.278;16.378;2023-08-12T02:36:09;298.73;;;166.03;;
48481;SDS011;34284;48.278;16.378;2023-08-12T02:38:35;301.87;;;166.20;;
48481;SDS011;34284;48.278;16.378;2023-08-12T02:41:01;326.03;;;168.40;;
48481;SDS011;34284;48.278;16.378;2023-08-12T02:43:27;308.30;;;172.53;;
48481;SDS011;34284;48.278;16.378;2023-08-12T02:45:53;306.83;;;172.13;;
48481;SDS011;34284;48.278;16.378;2023-08-12T02:48:19;308.27;;;170.93;;
48481;SDS011;34284;48.278;16.378;2023-08-12T02:50:45;305.07;;;169.83;;
48481;SDS011;34284;48.278;16.378;2023-08-12T02:53:11;301.70;;;164.73;;
48481;SDS011;34284;48.278;16.378;2023-08-12T02:55:37;308.17;;;171.90;;
48481;SDS011;34284;48.278;16.378;2023-08-12T02:58:03;300.57;;;162.07;;
48481;SDS011;34284;48.278;16.378;2023-08-12T03:00:29;311.37;;;169.73;;
48481;SDS011;34284;48.278;16.378;2023-08-12T03:02:55;308.40;;;170.80;;
48481;SDS011;34284;48.278;16.378;2023-08-12T03:05:22;314.90;;;161.97;;
48481;SDS011;34284;48.278;16.378;2023-08-12T03:07:48;319.03;;;160.87;;
48481;SDS011;34284;48.278;16.378;2023-08-12T03:10:14;308.00;;;164.73;;
48481;SDS011;34284;48.278;16.378;2023-08-12T03:12:40;304.13;;;165.87;;
48481;SDS011;34284;48.278;16.378;2023-08-12T03:15:07;307.43;;;166.77;;
48481;SDS011;34284;48.278;16.378;2023-08-12T03:17:33;300.43;;;164.03;;
48481;SDS011;34284;48.278;16.378;2023-08-12T03:19:59;309.67;;;168.77;;
48481;SDS011;34284;48.278;16.378;2023-08-12T03:22:27;301.70;;;164.57;;
48481;SDS011;34284;48.278;16.378;2023-08-12T03:24:53;337.07;;;153.03;;
48481;SDS011;34284;48.278;16.378;2023-08-12T03:27:19;331.07;;;159.60;;
48481;SDS011;34284;48.278;16.378;2023-08-12T03:29:45;320.57;;;155.07;;
48481;SDS011;34284;48.278;16.378;2023-08-12T03:32:11;316.53;;;158.10;;
48481;SDS011;34284;48.278;16.378;2023-08-12T03:34:37;303.93;;;146.30;;
48481;SDS011;34284;48.278;16.378;2023-08-12T03:37:03;313.37;;;154.53;;
48481;SDS011;34284;48.278;16.378;2023-08-12T03:39:30;322.33;;;153.87;;
48481;SDS011;34284;48.278;16.378;2023-08-12T03:41:56;319.00;;;148.27;;
48481;SDS011;34284;48.278;16.378;2023-08-12T03:44:22;315.87;;;153.20;;
48481;SDS011;34284;48.278;16.378;2023-08-12T03:46:47;312.23;;;149.13;;
48481;SDS011;34284;48.278;16.378;2023-08-12T03:49:14;306.50;;;151.23;;
48481;SDS011;34284;48.278;16.378;2023-08-12T03:51:40;303.30;;;151.73;;
48481;SDS011;34284;48.278;16.378;2023-08-12T03:54:05;306.13;;;149.20;;
48481;SDS011;34284;48.278;16.378;2023-08-12T03:56:31;310.07;;;155.10;;
48481;SDS011;34284;48.278;16.378;2023-08-12T03:58:57;305.10;;;154.43;;
48481;SDS011;34284;48.278;16.378;2023-08-12T04:01:23;303.93;;;159.83;;
48481;SDS011;34284;48.278;16.378;2023-08-12T04:03:50;305.53;;;154.30;;
48481;SDS011;34284;48.278;16.378;2023-08-12T04:06:16;319.50;;;158.33;;
48481;SDS011;34284;48.278;16.378;2023-08-12T04:08:42;315.97;;;149.53;;
48481;SDS011;34284;48.278;16.378;2023-08-12T04:11:08;316.03;;;158.37;;
48481;SDS011;34284;48.278;16.378;2023-08-12T04:13:34;306.33;;;157.23;;
48481;SDS011;34284;48.278;16.378;2023-08-12T04:15:59;308.10;;;156.47;;
48481;SDS011;34284;48.278;16.378;2023-08-12T04:18:25;302.90;;;145.47;;
48481;SDS011;34284;48.278;16.378;2023-08-12T04:20:52;306.60;;;153.30;;
48481;SDS011;34284;48.278;16.378;2023-08-12T04:23:18;303.70;;;146.93;;
48481;SDS011;34284;48.278;16.378;2023-08-12T04:25:45;303.67;;;156.10;;
48481;SDS011;34284;48.278;16.378;2023-08-12T04:28:11;303.90;;;162.47;;
48481;SDS011;34284;48.278;16.378;2023-08-12T04:30:44;299.27;;;152.20;;
48481;SDS011;34284;48.278;16.378;2023-08-12T04:33:11;299.50;;;150.60;;
48481;SDS011;34284;48.278;16.378;2023-08-12T04:35:38;301.67;;;153.23;;
48481;SDS011;34284;48.278;16.378;2023-08-12T04:38:04;302.13;;;156.27;;
48481;SDS011;34284;48.278;16.378;2023-08-12T04:40:30;301.43;;;156.87;;
48481;SDS011;34284;48.278;16.378;2023-08-12T04:42:56;300.20;;;155.70;;
48481;SDS011;34284;48.278;16.378;2023-08-12T04:45:22;298.43;;;154.90;;
48481;SDS011;34284;48.278;16.378;2023-08-12T04:47:48;294.87;;;156.60;;
48481;SDS011;34284;48.278;16.378;2023-08-12T04:50:15;296.80;;;155.97;;
48481;SDS011;34284;48.278;16.378;2023-08-12T04:52:41;296.40;;;152.20;;
48481;SDS011;34284;48.278;16.378;2023-08-12T04:55:07;299.13;;;153.13;;
48481;SDS011;34284;48.278;16.378;2023-08-12T04:57:35;304.07;;;156.37;;
48481;SDS011;34284;48.278;16.378;2023-08-12T05:00:01;299.10;;;148.20;;
48481;SDS011;34284;48.278;16.378;2023-08-12T05:02:28;305.97;;;156.63;;
48481;SDS011;34284;48.278;16.378;2023-08-12T05:04:54;305.30;;;151.97;;
48481;SDS011;34284;48.278;16.378;2023-08-12T05:07:20;309.67;;;159.23;;
48481;SDS011;34284;48.278;16.378;2023-08-12T05:09:46;304.60;;;152.57;;
48481;SDS011;34284;48.278;16.378;2023-08-12T05:12:12;303.13;;;153.90;;
48481;SDS011;34284;48.278;16.378;2023-08-12T05:14:39;307.03;;;152.60;;
48481;SDS011;34284;48.278;16.378;2023-08-12T05:17:05;302.53;;;152.97;;
48481;SDS011;34284;48.278;16.378;2023-08-12T05:19:31;303.43;;;157.27;;
48481;SDS011;34284;48.278;16.378;2023-08-12T05:21:57;305.23;;;155.67;;
48481;SDS011;34284;48.278;16.378;2023-08-12T05:24:23;310.53;;;171.40;;
48481;SDS011;34284;48.278;16.378;2023-08-12T05:26:49;309.93;;;164.87;;
48481;SDS011;34284;48.278;16.378;2023-08-12T05:29:15;310.13;;;171.83;;
48481;SDS011;34284;48.278;16.378;2023-08-12T05:31:41;316.70;;;173.93;;
48481;SDS011;34284;48.278;16.378;2023-08-12T05:34:07;320.67;;;171.70;;
48481;SDS011;34284;48.278;16.378;2023-08-12T05:36:33;323.67;;;174.00;;
48481;SDS011;34284;48.278;16.378;2023-08-12T05:38:59;320.87;;;172.40;;
48481;SDS011;34284;48.278;16.378;2023-08-12T05:41:25;323.57;;;174.27;;
48481;SDS011;34284;48.278;16.378;2023-08-12T05:43:51;329.57;;;183.77;;
48481;SDS011;34284;48.278;16.378;2023-08-12T05:46:17;330.53;;;183.27;;
48481;SDS011;34284;48.278;16.378;2023-08-12T05:48:43;326.33;;;190.30;;
48481;SDS011;34284;48.278;16.378;2023-08-12T05:51:09;328.98;;;181.05;;
48481;SDS011;34284;48.278;16.378;2023-08-12T05:53:35;337.15;;;188.55;;
48481;SDS011;34284;48.278;16.378;2023-08-12T05:56:01;343.95;;;185.98;;
48481;SDS011;34284;48.278;16.378;2023-08-12T05:58:27;341.83;;;203.20;;
48481;SDS011;34284;48.278;16.378;2023-08-12T06:00:53;344.45;;;204.57;;
48481;SDS011;34284;48.278;16.378;2023-08-12T06:03:19;338.92;;;204.88;;
48481;SDS011;34284;48.278;16.378;2023-08-12T06:05:46;341.15;;;195.70;;
48481;SDS011;34284;48.278;16.378;2023-08-12T06:08:12;341.15;;;202.05;;
48481;SDS011;34284;48.278;16.378;2023-08-12T06:10:38;340.88;;;208.40;;
48481;SDS011;34284;48.278;16.378;2023-08-12T06:13:04;345.40;;;203.18;;
48481;SDS011;34284;48.278;16.378;2023-08-12T06:15:31;350.45;;;215.93;;
48481;SDS011;34284;48.278;16.378;2023-08-12T06:17:57;340.15;;;208.35;;
48481;SDS011;34284;48.278;16.378;2023-08-12T06:20:23;340.30;;;211.88;;
48481;SDS011;34284;48.278;16.378;2023-08-12T06:22:50;344.40;;;209.15;;
48481;SDS011;34284;48.278;16.378;2023-08-12T06:25:16;341.55;;;214.57;;
48481;SDS011;34284;48.278;16.378;2023-08-12T06:27:42;341.77;;;211.75;;
48481;SDS011;34284;48.278;16.378;2023-08-12T06:30:08;335.02;;;217.20;;
48481;SDS011;34284;48.278;16.378;2023-08-12T06:32:35;351.25;;;228.68;;
48481;SDS011;34284;48.278;16.378;2023-08-12T06:35:01;356.65;;;229.57;;
48481;SDS011;34284;48.278;16.378;2023-08-12T06:37:27;352.48;;;237.70;;
48481;SDS011;34284;48.278;16.378;2023-08-12T06:39:53;353.13;;;230.70;;
48481;SDS011;34284;48.278;16.378;2023-08-12T06:42:20;342.85;;;226.23;;
48481;SDS011;34284;48.278;16.378;2023-08-12T06:44:46;344.60;;;232.30;;
48481;SDS011;34284;48.278;16.378;2023-08-12T06:47:12;346.65;;;233.30;;
48481;SDS011;34284;48.278;16.378;2023-08-12T06:49:38;343.45;;;237.27;;
48481;SDS011;34284;48.278;16.378;2023-08-12T06:52:04;390.65;;;319.67;;
48481;SDS011;34284;48.278;16.378;2023-08-12T06:54:30;339.83;;;225.95;;
48481;SDS011;34284;48.278;16.378;2023-08-12T06:56:56;352.55;;;248.63;;
48481;SDS011;34284;48.278;16.378;2023-08-12T06:59:22;363.73;;;266.95;;
48481;SDS011;34284;48.278;16.378;2023-08-12T07:01:48;338.67;;;234.38;;
48481;SDS011;34284;48.278;16.378;2023-08-12T07:04:14;336.63;;;249.88;;
48481;SDS011;34284;48.278;16.378;2023-08-12T07:06:40;336.08;;;236.57;;
48481;SDS011;34284;48.278;16.378;2023-08-12T07:09:06;345.75;;;243.25;;
48481;SDS011;34284;48.278;16.378;2023-08-12T07:11:33;344.65;;;246.13;;
48481;SDS011;34284;48.278;16.378;2023-08-12T07:13:59;342.75;;;251.27;;
48481;SDS011;34284;48.278;16.378;2023-08-12T07:16:25;365.50;;;262.45;;
48481;SDS011;34284;48.278;16.378;2023-08-12T07:18:51;343.92;;;254.82;;
48481;SDS011;34284;48.278;16.378;2023-08-12T07:21:17;352.35;;;266.75;;
48481;SDS011;34284;48.278;16.378;2023-08-12T07:23:43;350.42;;;273.98;;
48481;SDS011;34284;48.278;16.378;2023-08-12T07:26:09;366.40;;;285.67;;
48481;SDS011;34284;48.278;16.378;2023-08-12T07:28:35;357.30;;;275.20;;
48481;SDS011;34284;48.278;16.378;2023-08-12T07:31:01;361.90;;;288.50;;
48481;SDS011;34284;48.278;16.378;2023-08-12T07:33:27;355.05;;;280.77;;
48481;SDS011;34284;48.278;16.378;2023-08-12T07:35:53;353.48;;;285.83;;
48481;SDS011;34284;48.278;16.378;2023-08-12T07:38:19;356.98;;;291.63;;
48481;SDS011;34284;48.278;16.378;2023-08-12T07:40:45;361.40;;;291.05;;
48481;SDS011;34284;48.278;16.378;2023-08-12T07:43:11;355.88;;;291.85;;
48481;SDS011;34284;48.278;16.378;2023-08-12T07:45:37;373.52;;;314.48;;
48481;SDS011;34284;48.278;16.378;2023-08-12T07:48:04;377.95;;;308.40;;
48481;SDS011;34284;48.278;16.378;2023-08-12T07:50:30;360.08;;;303.48;;
48481;SDS011;34284;48.278;16.378;2023-08-12T07:52:56;360.35;;;303.10;;
48481;SDS011;34284;48.278;16.378;2023-08-12T07:55:22;350.85;;;295.20;;
48481;SDS011;34284;48.278;16.378;2023-08-12T07:57:48;355.70;;;307.38;;
48481;SDS011;34284;48.278;16.378;2023-08-12T08:00:14;352.15;;;300.35;;
48481;SDS011;34284;48.278;16.378;2023-08-12T08:02:40;362.05;;;314.95;;
48481;SDS011;34284;48.278;16.378;2023-08-12T08:05:06;366.27;;;313.95;;
48481;SDS011;34284;48.278;16.378;2023-08-12T08:07:32;370.50;;;327.10;;
48481;SDS011;34284;48.278;16.378;2023-08-12T08:09:58;370.88;;;327.55;;
48481;SDS011;34284;48.278;16.378;2023-08-12T08:12:24;368.02;;;320.85;;
48481;SDS011;34284;48.278;16.378;2023-08-12T08:14:50;366.60;;;325.02;;
48481;SDS011;34284;48.278;16.378;2023-08-12T08:17:16;374.65;;;334.10;;
48481;SDS011;34284;48.278;16.378;2023-08-12T08:19:42;379.17;;;338.35;;
48481;SDS011;34284;48.278;16.378;2023-08-12T08:22:08;378.90;;;336.58;;
48481;SDS011;34284;48.278;16.378;2023-08-12T08:24:34;376.00;;;335.55;;
48481;SDS011;34284;48.278;16.378;2023-08-12T08:27:00;365.65;;;321.02;;
48481;SDS011;34284;48.278;16.378;2023-08-12T08:29:29;382.08;;;341.02;;
48481;SDS011;34284;48.278;16.378;2023-08-12T08:31:55;377.40;;;336.38;;
48481;SDS011;34284;48.278;16.378;2023-08-12T08:34:21;364.95;;;324.80;;
48481;SDS011;34284;48.278;16.378;2023-08-12T08:36:47;366.52;;;318.48;;
48481;SDS011;34284;48.278;16.378;2023-08-12T08:39:13;374.08;;;331.65;;
48481;SDS011;34284;48.278;16.378;2023-08-12T08:41:39;370.55;;;328.67;;
48481;SDS011;34284;48.278;16.378;2023-08-12T08:44:08;366.77;;;326.30;;
48481;SDS011;34284;48.278;16.378;2023-08-12T08:46:35;372.67;;;327.23;;
48481;SDS011;34284;48.278;16.378;2023-08-12T08:49:01;387.08;;;345.33;;
48481;SDS011;34284;48.278;16.378;2023-08-12T08:51:29;378.00;;;336.30;;
48481;SDS011;34284;48.278;16.378;2023-08-12T08:53:57;375.20;;;333.50;;
48481;SDS011;34284;48.278;16.378;2023-08-12T08:56:23;382.92;;;341.70;;
48481;SDS011;34284;48.278;16.378;2023-08-12T08:58:49;376.73;;;335.58;;
48481;SDS011;34284;48.278;16.378;2023-08-12T09:01:17;395.45;;;353.30;;
48481;SDS011;34284;48.278;16.378;2023-08-12T09:03:44;387.48;;;345.70;;
48481;SDS011;34284;48.278;16.378;2023-08-12T09:06:10;410.45;;;367.80;;
48481;SDS011;34284;48.278;16.378;2023-08-12T09:08:36;406.20;;;363.40;;
48481;SDS011;34284;48.278;16.378;2023-08-12T09:11:03;403.55;;;360.45;;
48481;SDS011;34284;48.278;16.378;2023-08-12T09:13:29;409.27;;;366.35;;
48481;SDS011;34284;48.278;16.378;2023-08-12T09:15:55;404.10;;;361.58;;
48481;SDS011;34284;48.278;16.378;2023-08-12T09:18:21;421.33;;;378.05;;
48481;SDS011;34284;48.278;16.378;2023-08-12T09:20:51;403.35;;;361.08;;
48481;SDS011;34284;48.278;16.378;2023-08-12T09:23:17;419.42;;;375.73;;
48481;SDS011;34284;48.278;16.378;2023-08-12T09:25:43;421.00;;;377.70;;
48481;SDS011;34284;48.278;16.378;2023-08-12T09:28:10;415.13;;;371.75;;
48481;SDS011;34284;48.278;16.378;2023-08-12T09:30:36;444.00;;;399.77;;
48481;SDS011;34284;48.278;16.378;2023-08-12T09:33:06;448.83;;;404.58;;
48481;SDS011;34284;48.278;16.378;2023-08-12T09:38:02;426.02;;;382.90;;
48481;SDS011;34284;48.278;16.378;2023-08-12T09:40:29;414.58;;;371.88;;
48481;SDS011;34284;48.278;16.378;2023-08-12T09:42:56;414.77;;;372.35;;
48481;SDS011;34284;48.278;16.378;2023-08-12T09:45:25;407.10;;;364.75;;
48481;SDS011;34284;48.278;16.378;2023-08-12T09:47:54;422.63;;;379.67;;
48481;SDS011;34284;48.278;16.378;2023-08-12T09:50:21;422.98;;;380.10;;
48481;SDS011;34284;48.278;16.378;2023-08-12T09:52:48;411.77;;;369.23;;
48481;SDS011;34284;48.278;16.378;2023-08-12T09:55:15;412.40;;;369.70;;
48481;SDS011;34284;48.278;16.378;2023-08-12T09:57:42;410.15;;;366.35;;
48481;SDS011;34284;48.278;16.378;2023-08-12T10:00:10;406.05;;;363.65;;
48481;SDS011;34284;48.278;16.378;2023-08-12T10:02:41;405.63;;;362.92;;
48481;SDS011;34284;48.278;16.378;2023-08-12T10:05:07;412.10;;;369.45;;
48481;SDS011;34284;48.278;16.378;2023-08-12T10:07:36;400.30;;;358.33;;
48481;SDS011;34284;48.278;16.378;2023-08-12T10:10:02;404.90;;;361.70;;
48481;SDS011;34284;48.278;16.378;2023-08-12T10:12:30;421.23;;;377.67;;
48481;SDS011;34284;48.278;16.378;2023-08-12T10:14:56;403.45;;;361.70;;
48481;SDS011;34284;48.278;16.378;2023-08-12T10:17:22;405.23;;;363.10;;
48481;SDS011;34284;48.278;16.378;2023-08-12T10:19:53;419.55;;;376.67;;
48481;SDS011;34284;48.278;16.378;2023-08-12T10:22:20;422.70;;;379.90;;
48481;SDS011;34284;48.278;16.378;2023-08-12T10:24:47;423.65;;;381.20;;
48481;SDS011;34284;48.278;16.378;2023-08-12T10:27:13;438.88;;;394.85;;
48481;SDS011;34284;48.278;16.378;2023-08-12T10:29:42;425.08;;;381.92;;
48481;SDS011;34284;48.278;16.378;2023-08-12T10:32:08;428.75;;;384.70;;
48481;SDS011;34284;48.278;16.378;2023-08-12T10:34:35;413.40;;;370.98;;
48481;SDS011;34284;48.278;16.378;2023-08-12T10:37:02;420.77;;;376.95;;
48481;SDS011;34284;48.278;16.378;2023-08-12T10:39:28;416.35;;;373.30;;
48481;SDS011;34284;48.278;16.378;2023-08-12T10:41:55;421.58;;;378.67;;
48481;SDS011;34284;48.278;16.378;2023-08-12T10:44:21;437.63;;;393.80;;
48481;SDS011;34284;48.278;16.378;2023-08-12T10:46:51;435.88;;;392.30;;
48481;SDS011;34284;48.278;16.378;2023-08-12T10:49:21;453.58;;;409.25;;
48481;SDS011;34284;48.278;16.378;2023-08-12T10:51:53;430.55;;;386.73;;
48481;SDS011;34284;48.278;16.378;2023-08-12T11:02:21;450.85;;;406.73;;
48481;SDS011;34284;48.278;16.378;2023-08-12T11:05:00;445.08;;;401.27;;
48481;SDS011;34284;48.278;16.378;2023-08-12T11:07:34;444.98;;;400.77;;
48481;SDS011;34284;48.278;16.378;2023-08-12T11:10:19;454.77;;;410.45;;
48481;SDS011;34284;48.278;16.378;2023-08-12T11:15:18;447.90;;;402.98;;
48481;SDS011;34284;48.278;16.378;2023-08-12T11:17:47;436.33;;;392.02;;
48481;SDS011;34284;48.278;16.378;2023-08-12T11:20:13;437.95;;;394.23;;
48481;SDS011;34284;48.278;16.378;2023-08-12T11:22:40;443.60;;;399.92;;
48481;SDS011;34284;48.278;16.378;2023-08-12T11:25:07;459.75;;;415.27;;
48481;SDS011;34284;48.278;16.378;2023-08-12T11:30:03;463.27;;;418.77;;
48481;SDS011;34284;48.278;16.378;2023-08-12T11:32:29;434.30;;;391.25;;
48481;SDS011;34284;48.278;16.378;2023-08-12T11:34:55;447.60;;;403.35;;
48481;SDS011;34284;48.278;16.378;2023-08-12T11:37:21;451.75;;;406.90;;
48481;SDS011;34284;48.278;16.378;2023-08-12T11:39:47;458.05;;;413.73;;
48481;SDS011;34284;48.278;16.378;2023-08-12T11:42:13;463.40;;;418.95;;
48481;SDS011;34284;48.278;16.378;2023-08-12T11:44:40;477.40;;;432.10;;
48481;SDS011;34284;48.278;16.378;2023-08-12T11:47:07;472.77;;;426.98;;
48481;SDS011;34284;48.278;16.378;2023-08-12T11:49:33;474.48;;;429.77;;
48481;SDS011;34284;48.278;16.378;2023-08-12T11:51:59;483.00;;;437.27;;
48481;SDS011;34284;48.278;16.378;2023-08-12T11:54:25;462.67;;;418.00;;
48481;SDS011;34284;48.278;16.378;2023-08-12T11:56:51;511.40;;;460.90;;
48481;SDS011;34284;48.278;16.378;2023-08-12T11:59:18;481.25;;;434.77;;
48481;SDS011;34284;48.278;16.378;2023-08-12T12:01:48;466.63;;;421.95;;
48481;SDS011;34284;48.278;16.378;2023-08-12T12:04:15;473.40;;;428.13;;
48481;SDS011;34284;48.278;16.378;2023-08-12T12:06:41;470.23;;;424.13;;
48481;SDS011;34284;48.278;16.378;2023-08-12T12:09:07;468.88;;;423.88;;
48481;SDS011;34284;48.278;16.378;2023-08-12T12:11:37;472.13;;;427.02;;
48481;SDS011;34284;48.278;16.378;2023-08-12T12:14:04;458.98;;;413.17;;
48481;SDS011;34284;48.278;16.378;2023-08-12T12:16:38;457.00;;;411.55;;
48481;SDS011;34284;48.278;16.378;2023-08-12T12:19:08;449.60;;;405.25;;
48481;SDS011;34284;48.278;16.378;2023-08-12T12:21:40;454.95;;;409.85;;
48481;SDS011;34284;48.278;16.378;2023-08-12T12:24:07;463.50;;;418.35;;
48481;SDS011;34284;48.278;16.378;2023-08-12T12:26:34;458.98;;;414.70;;
48481;SDS011;34284;48.278;16.378;2023-08-12T12:29:01;464.77;;;419.55;;
48481;SDS011;34284;48.278;16.378;2023-08-12T12:31:27;449.70;;;405.83;;
48481;SDS011;34284;48.278;16.378;2023-08-12T12:33:53;456.55;;;412.88;;
48481;SDS011;34284;48.278;16.378;2023-08-12T12:36:19;445.98;;;401.85;;
48481;SDS011;34284;48.278;16.378;2023-08-12T12:38:45;452.60;;;408.52;;
48481;SDS011;34284;48.278;16.378;2023-08-12T12:41:11;453.27;;;409.55;;
48481;SDS011;34284;48.278;16.378;2023-08-12T12:43:37;462.10;;;417.98;;
48481;SDS011;34284;48.278;16.378;2023-08-12T12:46:03;457.23;;;413.33;;
48481;SDS011;34284;48.278;16.378;2023-08-12T12:48:29;455.60;;;411.52;;
48481;SDS011;34284;48.278;16.378;2023-08-12T12:50:55;459.42;;;415.08;;
48481;SDS011;34284;48.278;16.378;2023-08-12T12:53:21;464.90;;;419.63;;
48481;SDS011;34284;48.278;16.378;2023-08-12T12:55:48;481.52;;;435.25;;
48481;SDS011;34284;48.278;16.378;2023-08-12T12:58:14;459.02;;;414.85;;
48481;SDS011;34284;48.278;16.378;2023-08-12T13:00:41;455.83;;;411.60;;
48481;SDS011;34284;48.278;16.378;2023-08-12T13:03:07;468.63;;;424.17;;
48481;SDS011;34284;48.278;16.378;2023-08-12T13:05:33;445.35;;;402.05;;
48481;SDS011;34284;48.278;16.378;2023-08-12T13:07:59;444.83;;;400.83;;
48481;SDS011;34284;48.278;16.378;2023-08-12T13:10:25;441.73;;;398.48;;
48481;SDS011;34284;48.278;16.378;2023-08-12T13:12:51;450.85;;;407.35;;
48481;SDS011;34284;48.278;16.378;2023-08-12T13:15:17;464.40;;;420.08;;
48481;SDS011;34284;48.278;16.378;2023-08-12T13:17:43;451.77;;;407.73;;
48481;SDS011;34284;48.278;16.378;2023-08-12T13:20:09;445.05;;;401.35;;
48481;SDS011;34284;48.278;16.378;2023-08-12T13:22:36;462.48;;;418.25;;
48481;SDS011;34284;48.278;16.378;2023-08-12T13:25:02;444.55;;;401.45;;
48481;SDS011;34284;48.278;16.378;2023-08-12T13:27:28;459.38;;;415.00;;
48481;SDS011;34284;48.278;16.378;2023-08-12T13:29:54;459.52;;;414.25;;
48481;SDS011;34284;48.278;16.378;2023-08-12T13:32:20;460.33;;;415.92;;
48481;SDS011;34284;48.278;16.378;2023-08-12T13:34:47;477.58;;;432.58;;
48481;SDS011;34284;48.278;16.378;2023-08-12T13:37:13;455.67;;;411.20;;
48481;SDS011;34284;48.278;16.378;2023-08-12T13:39:39;461.23;;;416.98;;
48481;SDS011;34284;48.278;16.378;2023-08-12T13:42:05;454.77;;;410.95;;
48481;SDS011;34284;48.278;16.378;2023-08-12T13:44:31;466.92;;;422.13;;
48481;SDS011;34284;48.278;16.378;2023-08-12T13:46:57;433.88;;;390.60;;
48481;SDS011;34284;48.278;16.378;2023-08-12T13:49:24;466.08;;;421.67;;
48481;SDS011;34284;48.278;16.378;2023-08-12T13:51:50;446.80;;;403.45;;
48481;SDS011;34284;48.278;16.378;2023-08-12T13:54:16;451.95;;;408.40;;
48481;SDS011;34284;48.278;16.378;2023-08-12T13:56:42;457.67;;;413.30;;
48481;SDS011;34284;48.278;16.378;2023-08-12T13:59:08;437.70;;;393.88;;